Terminal Aerodrome Forecast
Issued by NWS Knoxville/Tri Cities, TN

Home | Current Version | Previous Version | Text Only | Print | Product List | Glossary On
Versions: 1 2 3 4 5 6 7 8 9 10 11 12 13 14 15 16 17 18 19 20 21 22 23 24
000
FTUS44 KMRX 201422 AAA
TAFTYS
TAF AMD
KTYS 201422Z 2014/2112 01003KT P6SM OVC035
      TEMPO 2014/2016 BKN025
     FM202000 35005KT P6SM SCT040
     FM210000 VRB03KT P6SM SCT200
     FM210800 VRB02KT 3SM BR FEW005=

USA.gov is the U.S. government's official web portal to all federal, state and local government web resources and services.